sensor_id;sensor_type;location;lat;lon;timestamp;temperature;humidity
18085;DHT22;9169;44.492;11.372;2022-11-18T00:00:54;15.60;65.80
18085;DHT22;9169;44.492;11.372;2022-11-18T00:03:20;14.70;64.90
18085;DHT22;9169;44.492;11.372;2022-11-18T00:05:54;15.60;65.80
18085;DHT22;9169;44.492;11.372;2022-11-18T00:08:22;15.60;65.60
18085;DHT22;9169;44.492;11.372;2022-11-18T00:10:49;15.60;65.50
18085;DHT22;9169;44.492;11.372;2022-11-18T00:13:16;15.60;65.30
18085;DHT22;9169;44.492;11.372;2022-11-18T00:16:01;15.60;65.40
18085;DHT22;9169;44.492;11.372;2022-11-18T00:18:27;15.60;66.00
18085;DHT22;9169;44.492;11.372;2022-11-18T00:20:54;15.60;65.60
18085;DHT22;9169;44.492;11.372;2022-11-18T00:23:23;15.60;65.40
18085;DHT22;9169;44.492;11.372;2022-11-18T00:25:49;15.60;65.30
18085;DHT22;9169;44.492;11.372;2022-11-18T00:28:16;15.60;65.30
18085;DHT22;9169;44.492;11.372;2022-11-18T00:30:43;15.60;65.40
18085;DHT22;9169;44.492;11.372;2022-11-18T00:33:10;15.70;65.60
18085;DHT22;9169;44.492;11.372;2022-11-18T00:35:36;15.70;65.40
18085;DHT22;9169;44.492;11.372;2022-11-18T00:38:03;15.70;65.30
18085;DHT22;9169;44.492;11.372;2022-11-18T00:40:31;15.70;65.20
18085;DHT22;9169;44.492;11.372;2022-11-18T00:42:58;15.70;65.50
18085;DHT22;9169;44.492;11.372;2022-11-18T00:45:24;15.70;65.30
18085;DHT22;9169;44.492;11.372;2022-11-18T00:47:51;15.70;65.20
18085;DHT22;9169;44.492;11.372;2022-11-18T00:50:17;15.70;65.30
18085;DHT22;9169;44.492;11.372;2022-11-18T00:52:44;15.70;65.40
18085;DHT22;9169;44.492;11.372;2022-11-18T00:55:11;15.70;65.30
18085;DHT22;9169;44.492;11.372;2022-11-18T00:57:39;15.70;65.20
18085;DHT22;9169;44.492;11.372;2022-11-18T01:00:07;15.70;65.30
18085;DHT22;9169;44.492;11.372;2022-11-18T01:02:34;15.70;65.80
18085;DHT22;9169;44.492;11.372;2022-11-18T01:05:00;15.70;65.90
18085;DHT22;9169;44.492;11.372;2022-11-18T01:07:27;15.60;65.70
18085;DHT22;9169;44.492;11.372;2022-11-18T01:09:54;15.60;65.50
18085;DHT22;9169;44.492;11.372;2022-11-18T01:12:21;15.60;65.70
18085;DHT22;9169;44.492;11.372;2022-11-18T01:15:08;15.60;65.90
18085;DHT22;9169;44.492;11.372;2022-11-18T01:17:35;15.60;65.60
18085;DHT22;9169;44.492;11.372;2022-11-18T01:20:01;15.60;65.70
18085;DHT22;9169;44.492;11.372;2022-11-18T01:22:28;15.60;65.80
18085;DHT22;9169;44.492;11.372;2022-11-18T01:24:55;15.60;65.80
18085;DHT22;9169;44.492;11.372;2022-11-18T01:27:22;15.60;66.30
18085;DHT22;9169;44.492;11.372;2022-11-18T01:29:48;15.60;66.20
18085;DHT22;9169;44.492;11.372;2022-11-18T01:32:16;15.50;66.20
18085;DHT22;9169;44.492;11.372;2022-11-18T01:34:43;15.50;66.10
18085;DHT22;9169;44.492;11.372;2022-11-18T01:37:10;15.50;66.10
18085;DHT22;9169;44.492;11.372;2022-11-18T01:39:37;15.50;66.40
18085;DHT22;9169;44.492;11.372;2022-11-18T01:42:04;15.50;66.10
18085;DHT22;9169;44.492;11.372;2022-11-18T01:47:18;15.50;66.30
18085;DHT22;9169;44.492;11.372;2022-11-18T01:49:46;15.50;66.30
18085;DHT22;9169;44.492;11.372;2022-11-18T01:52:12;15.50;66.20
18085;DHT22;9169;44.492;11.372;2022-11-18T01:54:41;15.40;66.20
18085;DHT22;9169;44.492;11.372;2022-11-18T01:57:10;15.50;66.30
18085;DHT22;9169;44.492;11.372;2022-11-18T01:59:38;15.50;66.80
18085;DHT22;9169;44.492;11.372;2022-11-18T02:02:07;15.40;66.30
18085;DHT22;9169;44.492;11.372;2022-11-18T02:04:37;15.40;66.70
18085;DHT22;9169;44.492;11.372;2022-11-18T02:07:04;15.40;66.80
18085;DHT22;9169;44.492;11.372;2022-11-18T02:09:31;15.40;66.70
18085;DHT22;9169;44.492;11.372;2022-11-18T02:11:58;15.40;66.70
18085;DHT22;9169;44.492;11.372;2022-11-18T02:14:25;15.40;66.60
18085;DHT22;9169;44.492;11.372;2022-11-18T02:16:57;15.30;66.50
18085;DHT22;9169;44.492;11.372;2022-11-18T02:19:31;15.30;66.40
18085;DHT22;9169;44.492;11.372;2022-11-18T02:22:09;15.30;66.40
18085;DHT22;9169;44.492;11.372;2022-11-18T02:24:42;15.30;66.60
18085;DHT22;9169;44.492;11.372;2022-11-18T02:27:21;15.30;66.50
18085;DHT22;9169;44.492;11.372;2022-11-18T02:29:51;15.30;66.40
18085;DHT22;9169;44.492;11.372;2022-11-18T02:32:22;15.30;66.50
18085;DHT22;9169;44.492;11.372;2022-11-18T02:34:51;15.30;67.20
18085;DHT22;9169;44.492;11.372;2022-11-18T02:37:20;15.30;67.10
18085;DHT22;9169;44.492;11.372;2022-11-18T02:39:50;15.30;66.70
18085;DHT22;9169;44.492;11.372;2022-11-18T02:42:18;15.30;66.60
18085;DHT22;9169;44.492;11.372;2022-11-18T02:44:48;15.30;66.70
18085;DHT22;9169;44.492;11.372;2022-11-18T02:47:16;15.30;66.70
18085;DHT22;9169;44.492;11.372;2022-11-18T02:49:45;15.20;66.60
18085;DHT22;9169;44.492;11.372;2022-11-18T02:52:13;15.20;66.80
18085;DHT22;9169;44.492;11.372;2022-11-18T02:54:42;15.20;66.90
18085;DHT22;9169;44.492;11.372;2022-11-18T02:57:10;15.20;67.20
18085;DHT22;9169;44.492;11.372;2022-11-18T02:59:37;15.20;66.90
18085;DHT22;9169;44.492;11.372;2022-11-18T03:02:04;15.20;67.10
18085;DHT22;9169;44.492;11.372;2022-11-18T03:04:32;15.20;67.00
18085;DHT22;9169;44.492;11.372;2022-11-18T03:07:02;15.20;66.90
18085;DHT22;9169;44.492;11.372;2022-11-18T03:09:30;15.20;66.80
18085;DHT22;9169;44.492;11.372;2022-11-18T03:12:00;15.20;66.80
18085;DHT22;9169;44.492;11.372;2022-11-18T03:14:31;15.30;66.80
18085;DHT22;9169;44.492;11.372;2022-11-18T03:17:02;15.30;66.60
18085;DHT22;9169;44.492;11.372;2022-11-18T03:19:33;15.30;66.50
18085;DHT22;9169;44.492;11.372;2022-11-18T03:22:04;15.30;66.70
18085;DHT22;9169;44.492;11.372;2022-11-18T03:24:33;15.20;67.20
18085;DHT22;9169;44.492;11.372;2022-11-18T03:27:03;15.20;67.10
18085;DHT22;9169;44.492;11.372;2022-11-18T03:29:33;15.20;67.00
18085;DHT22;9169;44.492;11.372;2022-11-18T03:32:02;15.20;66.90
18085;DHT22;9169;44.492;11.372;2022-11-18T03:34:30;15.20;66.70
18085;DHT22;9169;44.492;11.372;2022-11-18T03:37:01;15.20;66.60
18085;DHT22;9169;44.492;11.372;2022-11-18T03:39:29;15.20;66.70
18085;DHT22;9169;44.492;11.372;2022-11-18T03:41:58;16.40;67.90
18085;DHT22;9169;44.492;11.372;2022-11-18T03:44:28;15.30;66.60
18085;DHT22;9169;44.492;11.372;2022-11-18T03:46:57;15.30;66.50
18085;DHT22;9169;44.492;11.372;2022-11-18T03:49:25;15.30;66.40
18085;DHT22;9169;44.492;11.372;2022-11-18T03:51:53;15.30;66.30
18085;DHT22;9169;44.492;11.372;2022-11-18T03:54:24;15.30;66.80
18085;DHT22;9169;44.492;11.372;2022-11-18T03:56:53;15.30;66.60
18085;DHT22;9169;44.492;11.372;2022-11-18T03:59:22;15.30;66.50
18085;DHT22;9169;44.492;11.372;2022-11-18T04:01:51;15.30;66.40
18085;DHT22;9169;44.492;11.372;2022-11-18T04:04:19;15.30;66.60
18085;DHT22;9169;44.492;11.372;2022-11-18T04:06:46;15.30;67.00
18085;DHT22;9169;44.492;11.372;2022-11-18T04:09:16;15.30;66.80
18085;DHT22;9169;44.492;11.372;2022-11-18T04:11:45;15.30;66.70
18085;DHT22;9169;44.492;11.372;2022-11-18T04:14:28;15.30;67.00
18085;DHT22;9169;44.492;11.372;2022-11-18T04:16:55;15.20;66.70
18085;DHT22;9169;44.492;11.372;2022-11-18T04:19:22;15.20;66.60
18085;DHT22;9169;44.492;11.372;2022-11-18T04:21:49;15.20;66.50
18085;DHT22;9169;44.492;11.372;2022-11-18T04:24:16;15.20;66.60
18085;DHT22;9169;44.492;11.372;2022-11-18T04:26:44;15.30;66.70
18085;DHT22;9169;44.492;11.372;2022-11-18T04:29:11;15.30;66.60
18085;DHT22;9169;44.492;11.372;2022-11-18T04:31:38;15.30;66.60
18085;DHT22;9169;44.492;11.372;2022-11-18T04:34:04;15.20;66.50
18085;DHT22;9169;44.492;11.372;2022-11-18T04:36:31;15.20;66.40
18085;DHT22;9169;44.492;11.372;2022-11-18T04:38:58;15.20;66.40
18085;DHT22;9169;44.492;11.372;2022-11-18T04:41:25;15.20;66.30
18085;DHT22;9169;44.492;11.372;2022-11-18T04:44:07;15.20;66.40
18085;DHT22;9169;44.492;11.372;2022-11-18T04:46:37;15.20;66.60
18085;DHT22;9169;44.492;11.372;2022-11-18T04:49:04;15.20;67.00
18085;DHT22;9169;44.492;11.372;2022-11-18T04:51:31;15.10;66.90
18085;DHT22;9169;44.492;11.372;2022-11-18T04:53:58;15.10;66.80
18085;DHT22;9169;44.492;11.372;2022-11-18T04:56:24;15.10;67.10
18085;DHT22;9169;44.492;11.372;2022-11-18T04:58:51;15.10;67.20
18085;DHT22;9169;44.492;11.372;2022-11-18T05:01:21;15.10;67.00
18085;DHT22;9169;44.492;11.372;2022-11-18T05:03:48;15.10;67.20
18085;DHT22;9169;44.492;11.372;2022-11-18T05:06:14;15.00;67.40
18085;DHT22;9169;44.492;11.372;2022-11-18T05:08:41;15.00;67.30
18085;DHT22;9169;44.492;11.372;2022-11-18T05:11:08;15.00;67.30
18085;DHT22;9169;44.492;11.372;2022-11-18T05:13:49;15.10;67.40
18085;DHT22;9169;44.492;11.372;2022-11-18T05:16:16;15.00;67.40
18085;DHT22;9169;44.492;11.372;2022-11-18T05:18:44;15.00;67.80
18085;DHT22;9169;44.492;11.372;2022-11-18T05:21:11;15.00;68.10
18085;DHT22;9169;44.492;11.372;2022-11-18T05:23:37;14.90;68.10
18085;DHT22;9169;44.492;11.372;2022-11-18T05:26:05;14.90;68.00
18085;DHT22;9169;44.492;11.372;2022-11-18T05:28:32;14.90;68.30
18085;DHT22;9169;44.492;11.372;2022-11-18T05:30:59;14.90;68.20
18085;DHT22;9169;44.492;11.372;2022-11-18T05:33:26;14.90;68.30
18085;DHT22;9169;44.492;11.372;2022-11-18T05:35:54;14.90;68.60
18085;DHT22;9169;44.492;11.372;2022-11-18T05:38:21;14.90;68.40
18085;DHT22;9169;44.492;11.372;2022-11-18T05:40:48;14.90;68.60
18085;DHT22;9169;44.492;11.372;2022-11-18T05:43:14;14.90;68.80
18085;DHT22;9169;44.492;11.372;2022-11-18T05:45:42;14.80;69.10
18085;DHT22;9169;44.492;11.372;2022-11-18T05:48:08;14.80;69.10
18085;DHT22;9169;44.492;11.372;2022-11-18T05:50:36;14.80;69.70
18085;DHT22;9169;44.492;11.372;2022-11-18T05:53:04;14.70;69.40
18085;DHT22;9169;44.492;11.372;2022-11-18T05:55:33;14.70;69.40
18085;DHT22;9169;44.492;11.372;2022-11-18T05:58:01;14.70;69.60
18085;DHT22;9169;44.492;11.372;2022-11-18T06:00:28;14.80;69.60
18085;DHT22;9169;44.492;11.372;2022-11-18T06:02:55;14.70;69.30
18085;DHT22;9169;44.492;11.372;2022-11-18T06:05:22;14.80;69.60
18085;DHT22;9169;44.492;11.372;2022-11-18T06:07:50;14.70;69.40
18085;DHT22;9169;44.492;11.372;2022-11-18T06:10:20;14.80;69.50
18085;DHT22;9169;44.492;11.372;2022-11-18T06:12:48;14.70;69.80
18085;DHT22;9169;44.492;11.372;2022-11-18T06:15:17;14.70;69.80
18085;DHT22;9169;44.492;11.372;2022-11-18T06:17:47;14.80;69.70
18085;DHT22;9169;44.492;11.372;2022-11-18T06:20:16;14.80;70.10
18085;DHT22;9169;44.492;11.372;2022-11-18T06:22:43;14.80;69.80
18085;DHT22;9169;44.492;11.372;2022-11-18T06:25:10;14.80;69.80
18085;DHT22;9169;44.492;11.372;2022-11-18T06:27:38;14.80;69.70
18085;DHT22;9169;44.492;11.372;2022-11-18T06:30:05;14.80;70.60
18085;DHT22;9169;44.492;11.372;2022-11-18T06:32:32;14.70;70.30
18085;DHT22;9169;44.492;11.372;2022-11-18T06:34:59;14.80;70.30
18085;DHT22;9169;44.492;11.372;2022-11-18T06:37:26;14.80;71.00
18085;DHT22;9169;44.492;11.372;2022-11-18T06:39:53;14.80;70.40
18085;DHT22;9169;44.492;11.372;2022-11-18T06:42:19;14.80;70.30
18085;DHT22;9169;44.492;11.372;2022-11-18T06:45:01;14.80;70.30
18085;DHT22;9169;44.492;11.372;2022-11-18T06:47:28;14.80;70.10
18085;DHT22;9169;44.492;11.372;2022-11-18T06:49:54;14.80;70.40
18085;DHT22;9169;44.492;11.372;2022-11-18T06:52:21;14.80;70.40
18085;DHT22;9169;44.492;11.372;2022-11-18T06:54:48;14.80;70.20
18085;DHT22;9169;44.492;11.372;2022-11-18T06:57:15;14.80;70.20
18085;DHT22;9169;44.492;11.372;2022-11-18T06:59:41;14.90;70.60
18085;DHT22;9169;44.492;11.372;2022-11-18T07:02:10;14.80;70.90
18085;DHT22;9169;44.492;11.372;2022-11-18T07:04:36;14.80;70.80
18085;DHT22;9169;44.492;11.372;2022-11-18T07:07:04;14.80;71.20
18085;DHT22;9169;44.492;11.372;2022-11-18T07:09:31;14.80;71.00
18085;DHT22;9169;44.492;11.372;2022-11-18T07:11:57;14.80;71.10
18085;DHT22;9169;44.492;11.372;2022-11-18T07:14:24;14.80;71.40
18085;DHT22;9169;44.492;11.372;2022-11-18T07:16:51;14.80;71.30
18085;DHT22;9169;44.492;11.372;2022-11-18T07:19:19;14.80;71.20
18085;DHT22;9169;44.492;11.372;2022-11-18T07:21:46;14.90;71.30
18085;DHT22;9169;44.492;11.372;2022-11-18T07:24:13;15.00;71.40
18085;DHT22;9169;44.492;11.372;2022-11-18T07:26:41;15.00;71.30
18085;DHT22;9169;44.492;11.372;2022-11-18T07:29:08;15.10;71.60
18085;DHT22;9169;44.492;11.372;2022-11-18T07:31:35;15.10;71.70
18085;DHT22;9169;44.492;11.372;2022-11-18T07:34:04;15.20;72.10
18085;DHT22;9169;44.492;11.372;2022-11-18T07:36:32;15.20;72.10
18085;DHT22;9169;44.492;11.372;2022-11-18T07:38:59;15.20;72.10
18085;DHT22;9169;44.492;11.372;2022-11-18T07:41:27;15.30;71.90
18085;DHT22;9169;44.492;11.372;2022-11-18T07:43:54;15.30;71.70
18085;DHT22;9169;44.492;11.372;2022-11-18T07:46:22;15.30;71.40
18085;DHT22;9169;44.492;11.372;2022-11-18T07:48:50;15.40;71.40
18085;DHT22;9169;44.492;11.372;2022-11-18T07:51:18;15.40;71.20
18085;DHT22;9169;44.492;11.372;2022-11-18T07:53:46;15.40;71.20
18085;DHT22;9169;44.492;11.372;2022-11-18T07:56:13;15.40;71.10
18085;DHT22;9169;44.492;11.372;2022-11-18T07:58:41;15.50;71.10
18085;DHT22;9169;44.492;11.372;2022-11-18T08:01:08;15.50;71.10
18085;DHT22;9169;44.492;11.372;2022-11-18T08:03:35;15.60;71.10
18085;DHT22;9169;44.492;11.372;2022-11-18T08:06:03;15.60;71.00
18085;DHT22;9169;44.492;11.372;2022-11-18T08:08:30;15.70;70.90
18085;DHT22;9169;44.492;11.372;2022-11-18T08:10:58;15.70;70.70
18085;DHT22;9169;44.492;11.372;2022-11-18T08:13:26;15.70;70.60
18085;DHT22;9169;44.492;11.372;2022-11-18T08:15:53;15.70;70.70
18085;DHT22;9169;44.492;11.372;2022-11-18T08:18:20;15.70;70.60
18085;DHT22;9169;44.492;11.372;2022-11-18T08:20:47;15.80;70.50
18085;DHT22;9169;44.492;11.372;2022-11-18T08:23:14;15.80;70.40
18085;DHT22;9169;44.492;11.372;2022-11-18T08:25:42;15.80;70.40
18085;DHT22;9169;44.492;11.372;2022-11-18T08:28:11;15.90;70.30
18085;DHT22;9169;44.492;11.372;2022-11-18T08:30:38;15.90;70.10
18085;DHT22;9169;44.492;11.372;2022-11-18T08:33:05;15.90;69.90
18085;DHT22;9169;44.492;11.372;2022-11-18T08:35:32;15.90;69.70
18085;DHT22;9169;44.492;11.372;2022-11-18T08:37:58;15.90;69.60
18085;DHT22;9169;44.492;11.372;2022-11-18T08:40:25;16.00;69.70
18085;DHT22;9169;44.492;11.372;2022-11-18T08:42:52;16.00;69.70
18085;DHT22;9169;44.492;11.372;2022-11-18T08:45:20;16.00;69.60
18085;DHT22;9169;44.492;11.372;2022-11-18T08:47:47;16.10;69.60
18085;DHT22;9169;44.492;11.372;2022-11-18T08:50:14;16.30;69.70
18085;DHT22;9169;44.492;11.372;2022-11-18T08:52:41;16.10;69.40
18085;DHT22;9169;44.492;11.372;2022-11-18T08:55:08;16.10;69.30
18085;DHT22;9169;44.492;11.372;2022-11-18T08:57:35;16.20;69.40
18085;DHT22;9169;44.492;11.372;2022-11-18T09:00:02;16.20;69.10
18085;DHT22;9169;44.492;11.372;2022-11-18T09:02:30;16.10;68.90
18085;DHT22;9169;44.492;11.372;2022-11-18T09:04:57;16.10;69.00
18085;DHT22;9169;44.492;11.372;2022-11-18T09:07:24;16.10;69.10
18085;DHT22;9169;44.492;11.372;2022-11-18T09:09:51;16.10;69.20
18085;DHT22;9169;44.492;11.372;2022-11-18T09:12:17;16.20;69.40
18085;DHT22;9169;44.492;11.372;2022-11-18T09:14:44;16.20;69.20
18085;DHT22;9169;44.492;11.372;2022-11-18T09:17:11;16.20;69.20
18085;DHT22;9169;44.492;11.372;2022-11-18T09:19:40;16.30;69.30
18085;DHT22;9169;44.492;11.372;2022-11-18T09:22:07;16.40;69.30
18085;DHT22;9169;44.492;11.372;2022-11-18T09:24:34;16.50;69.30
18085;DHT22;9169;44.492;11.372;2022-11-18T09:27:01;16.50;69.20
18085;DHT22;9169;44.492;11.372;2022-11-18T09:29:28;16.50;69.30
18085;DHT22;9169;44.492;11.372;2022-11-18T09:31:55;16.60;69.40
18085;DHT22;9169;44.492;11.372;2022-11-18T09:34:22;16.70;69.50
18085;DHT22;9169;44.492;11.372;2022-11-18T09:36:50;16.80;69.40
18085;DHT22;9169;44.492;11.372;2022-11-18T09:39:20;16.80;69.00
18085;DHT22;9169;44.492;11.372;2022-11-18T09:41:47;16.90;68.80
18085;DHT22;9169;44.492;11.372;2022-11-18T09:44:24;16.90;68.80
18085;DHT22;9169;44.492;11.372;2022-11-18T09:46:56;16.90;68.70
18085;DHT22;9169;44.492;11.372;2022-11-18T09:49:25;17.00;68.70
18085;DHT22;9169;44.492;11.372;2022-11-18T09:51:53;17.00;68.40
18085;DHT22;9169;44.492;11.372;2022-11-18T09:54:22;17.00;68.40
18085;DHT22;9169;44.492;11.372;2022-11-18T09:56:50;17.10;68.40
18085;DHT22;9169;44.492;11.372;2022-11-18T09:59:17;17.10;68.20
18085;DHT22;9169;44.492;11.372;2022-11-18T10:01:45;17.20;68.10
18085;DHT22;9169;44.492;11.372;2022-11-18T10:04:13;17.00;68.10
18085;DHT22;9169;44.492;11.372;2022-11-18T10:06:41;17.30;68.30
18085;DHT22;9169;44.492;11.372;2022-11-18T10:09:12;17.40;68.40
18085;DHT22;9169;44.492;11.372;2022-11-18T10:11:44;17.50;67.70
18085;DHT22;9169;44.492;11.372;2022-11-18T10:14:17;17.50;67.40
18085;DHT22;9169;44.492;11.372;2022-11-18T10:16:46;17.50;67.40
18085;DHT22;9169;44.492;11.372;2022-11-18T10:19:20;17.50;67.90
18085;DHT22;9169;44.492;11.372;2022-11-18T10:21:50;17.60;67.40
18085;DHT22;9169;44.492;11.372;2022-11-18T10:24:22;17.60;67.10
18085;DHT22;9169;44.492;11.372;2022-11-18T10:26:53;17.50;65.90
18085;DHT22;9169;44.492;11.372;2022-11-18T10:29:20;17.20;65.70
18085;DHT22;9169;44.492;11.372;2022-11-18T10:31:52;17.50;66.20
18085;DHT22;9169;44.492;11.372;2022-11-18T10:34:19;17.40;65.60
18085;DHT22;9169;44.492;11.372;2022-11-18T10:36:56;17.40;65.50
18085;DHT22;9169;44.492;11.372;2022-11-18T10:39:25;17.40;65.70
18085;DHT22;9169;44.492;11.372;2022-11-18T10:41:59;17.30;65.70
18085;DHT22;9169;44.492;11.372;2022-11-18T10:44:28;17.30;65.50
18085;DHT22;9169;44.492;11.372;2022-11-18T10:46:55;17.30;65.50
18085;DHT22;9169;44.492;11.372;2022-11-18T10:49:39;17.30;65.60
18085;DHT22;9169;44.492;11.372;2022-11-18T10:52:08;17.30;65.60
18085;DHT22;9169;44.492;11.372;2022-11-18T10:54:37;17.30;65.30
18085;DHT22;9169;44.492;11.372;2022-11-18T10:57:05;17.30;65.30
18085;DHT22;9169;44.492;11.372;2022-11-18T10:59:33;17.30;65.20
18085;DHT22;9169;44.492;11.372;2022-11-18T11:02:02;17.30;65.80
18085;DHT22;9169;44.492;11.372;2022-11-18T11:04:29;17.40;65.60
18085;DHT22;9169;44.492;11.372;2022-11-18T11:06:56;17.50;66.20
18085;DHT22;9169;44.492;11.372;2022-11-18T11:09:25;17.50;65.10
18085;DHT22;9169;44.492;11.372;2022-11-18T11:11:57;17.50;65.00
18085;DHT22;9169;44.492;11.372;2022-11-18T11:14:26;17.60;65.10
18085;DHT22;9169;44.492;11.372;2022-11-18T11:16:58;17.60;64.80
18085;DHT22;9169;44.492;11.372;2022-11-18T11:19:26;17.60;64.20
18085;DHT22;9169;44.492;11.372;2022-11-18T11:21:54;17.60;64.00
18085;DHT22;9169;44.492;11.372;2022-11-18T11:24:23;17.60;64.20
18085;DHT22;9169;44.492;11.372;2022-11-18T11:26:53;17.60;63.70
18085;DHT22;9169;44.492;11.372;2022-11-18T11:29:27;17.60;63.20
18085;DHT22;9169;44.492;11.372;2022-11-18T11:31:58;17.60;63.60
18085;DHT22;9169;44.492;11.372;2022-11-18T11:34:31;17.60;63.50
18085;DHT22;9169;44.492;11.372;2022-11-18T11:37:03;17.60;63.80
18085;DHT22;9169;44.492;11.372;2022-11-18T11:39:53;17.70;64.20
18085;DHT22;9169;44.492;11.372;2022-11-18T11:42:30;17.70;64.40
18085;DHT22;9169;44.492;11.372;2022-11-18T11:45:02;17.80;64.50
18085;DHT22;9169;44.492;11.372;2022-11-18T11:47:34;17.90;64.00
18085;DHT22;9169;44.492;11.372;2022-11-18T11:50:16;17.90;64.00
18085;DHT22;9169;44.492;11.372;2022-11-18T11:52:46;17.90;63.50
18085;DHT22;9169;44.492;11.372;2022-11-18T11:55:17;17.90;63.40
18085;DHT22;9169;44.492;11.372;2022-11-18T11:57:57;17.90;63.00
18085;DHT22;9169;44.492;11.372;2022-11-18T12:00:29;17.90;63.60
18085;DHT22;9169;44.492;11.372;2022-11-18T12:03:03;18.00;63.90
18085;DHT22;9169;44.492;11.372;2022-11-18T12:05:32;18.10;63.90
18085;DHT22;9169;44.492;11.372;2022-11-18T12:08:01;18.20;64.40
18085;DHT22;9169;44.492;11.372;2022-11-18T12:10:31;18.20;64.10
18085;DHT22;9169;44.492;11.372;2022-11-18T12:13:13;18.30;63.50
18085;DHT22;9169;44.492;11.372;2022-11-18T12:15:47;18.30;63.00
18085;DHT22;9169;44.492;11.372;2022-11-18T12:18:16;18.30;62.40
18085;DHT22;9169;44.492;11.372;2022-11-18T12:20:46;18.20;62.00
18085;DHT22;9169;44.492;11.372;2022-11-18T12:23:14;18.20;62.10
18085;DHT22;9169;44.492;11.372;2022-11-18T12:26:00;18.20;62.60
18085;DHT22;9169;44.492;11.372;2022-11-18T12:28:28;18.20;61.80
18085;DHT22;9169;44.492;11.372;2022-11-18T12:33:42;18.10;61.50
18085;DHT22;9169;44.492;11.372;2022-11-18T12:36:09;18.10;62.00
18085;DHT22;9169;44.492;11.372;2022-11-18T12:38:49;18.20;62.30
18085;DHT22;9169;44.492;11.372;2022-11-18T12:44:12;18.20;61.50
18085;DHT22;9169;44.492;11.372;2022-11-18T12:46:52;18.10;61.70
18085;DHT22;9169;44.492;11.372;2022-11-18T12:52:30;18.10;61.70
18085;DHT22;9169;44.492;11.372;2022-11-18T12:54:53;18.20;61.90
18085;DHT22;9169;44.492;11.372;2022-11-18T12:57:21;18.10;61.70
18085;DHT22;9169;44.492;11.372;2022-11-18T12:59:48;18.20;62.10
18085;DHT22;9169;44.492;11.372;2022-11-18T13:02:17;18.20;62.20
18085;DHT22;9169;44.492;11.372;2022-11-18T13:04:44;18.20;62.00
18085;DHT22;9169;44.492;11.372;2022-11-18T13:07:12;18.20;62.00
18085;DHT22;9169;44.492;11.372;2022-11-18T13:09:56;18.20;61.80
18085;DHT22;9169;44.492;11.372;2022-11-18T13:12:24;18.20;61.70
18085;DHT22;9169;44.492;11.372;2022-11-18T13:14:51;18.20;61.70
18085;DHT22;9169;44.492;11.372;2022-11-18T13:17:37;18.20;61.60
18085;DHT22;9169;44.492;11.372;2022-11-18T13:20:20;18.20;61.80
18085;DHT22;9169;44.492;11.372;2022-11-18T13:22:49;18.30;61.40
18085;DHT22;9169;44.492;11.372;2022-11-18T13:25:34;18.30;62.00
18085;DHT22;9169;44.492;11.372;2022-11-18T13:28:02;18.60;67.90
18085;DHT22;9169;44.492;11.372;2022-11-18T13:30:35;19.30;75.80
18085;DHT22;9169;44.492;11.372;2022-11-18T13:33:03;20.40;82.10
18085;DHT22;9169;44.492;11.372;2022-11-18T13:35:30;21.40;88.10
18085;DHT22;9169;44.492;11.372;2022-11-18T13:37:59;22.50;90.90
18085;DHT22;9169;44.492;11.372;2022-11-18T13:42:53;24.30;87.80
18085;DHT22;9169;44.492;11.372;2022-11-18T13:45:20;24.80;80.80
18085;DHT22;9169;44.492;11.372;2022-11-18T13:47:50;25.00;75.00
18085;DHT22;9169;44.492;11.372;2022-11-18T13:50:20;24.90;69.40
18085;DHT22;9169;44.492;11.372;2022-11-18T13:52:51;24.60;64.80
18085;DHT22;9169;44.492;11.372;2022-11-18T13:55:23;24.30;62.70
18085;DHT22;9169;44.492;11.372;2022-11-18T13:57:51;23.90;60.70
18085;DHT22;9169;44.492;11.372;2022-11-18T14:00:22;23.60;59.50
18085;DHT22;9169;44.492;11.372;2022-11-18T14:02:52;23.20;59.20
18085;DHT22;9169;44.492;11.372;2022-11-18T14:05:19;22.90;59.10
18085;DHT22;9169;44.492;11.372;2022-11-18T14:10:38;22.40;58.90
18085;DHT22;9169;44.492;11.372;2022-11-18T14:13:12;22.20;58.90
18085;DHT22;9169;44.492;11.372;2022-11-18T14:15:41;21.90;58.70
18085;DHT22;9169;44.492;11.372;2022-11-18T14:18:13;21.70;58.20
18085;DHT22;9169;44.492;11.372;2022-11-18T14:20:48;21.50;57.80
18085;DHT22;9169;44.492;11.372;2022-11-18T14:23:15;21.20;57.60
18085;DHT22;9169;44.492;11.372;2022-11-18T14:25:43;21.00;57.60
18085;DHT22;9169;44.492;11.372;2022-11-18T14:28:11;20.90;57.70
18085;DHT22;9169;44.492;11.372;2022-11-18T14:30:40;20.70;58.00
18085;DHT22;9169;44.492;11.372;2022-11-18T14:33:11;20.60;58.10
18085;DHT22;9169;44.492;11.372;2022-11-18T14:35:39;20.50;58.30
18085;DHT22;9169;44.492;11.372;2022-11-18T14:38:10;20.40;58.40
18085;DHT22;9169;44.492;11.372;2022-11-18T14:40:38;20.20;58.30
18085;DHT22;9169;44.492;11.372;2022-11-18T14:43:06;20.10;58.30
18085;DHT22;9169;44.492;11.372;2022-11-18T14:45:33;20.00;58.40
18085;DHT22;9169;44.492;11.372;2022-11-18T14:48:00;19.90;58.50
18085;DHT22;9169;44.492;11.372;2022-11-18T14:50:27;19.80;58.60
18085;DHT22;9169;44.492;11.372;2022-11-18T14:52:53;19.80;58.70
18085;DHT22;9169;44.492;11.372;2022-11-18T14:55:20;19.70;58.70
18085;DHT22;9169;44.492;11.372;2022-11-18T14:57:47;19.60;58.80
18085;DHT22;9169;44.492;11.372;2022-11-18T15:00:16;19.50;58.80
18085;DHT22;9169;44.492;11.372;2022-11-18T15:02:44;19.50;58.90
18085;DHT22;9169;44.492;11.372;2022-11-18T15:05:10;19.30;58.90
18085;DHT22;9169;44.492;11.372;2022-11-18T15:07:37;19.30;58.90
18085;DHT22;9169;44.492;11.372;2022-11-18T15:10:04;19.20;59.00
18085;DHT22;9169;44.492;11.372;2022-11-18T15:12:31;19.20;59.10
18085;DHT22;9169;44.492;11.372;2022-11-18T15:14:58;19.10;59.00
18085;DHT22;9169;44.492;11.372;2022-11-18T15:17:26;19.10;59.10
18085;DHT22;9169;44.492;11.372;2022-11-18T15:19:54;19.00;59.10
18085;DHT22;9169;44.492;11.372;2022-11-18T15:22:21;19.00;59.20
18085;DHT22;9169;44.492;11.372;2022-11-18T15:24:47;18.90;59.20
18085;DHT22;9169;44.492;11.372;2022-11-18T15:27:14;18.90;59.30
18085;DHT22;9169;44.492;11.372;2022-11-18T15:29:41;18.80;59.20
18085;DHT22;9169;44.492;11.372;2022-11-18T15:32:08;18.70;59.20
18085;DHT22;9169;44.492;11.372;2022-11-18T15:34:36;18.70;59.30
18085;DHT22;9169;44.492;11.372;2022-11-18T15:37:03;18.60;59.30
18085;DHT22;9169;44.492;11.372;2022-11-18T15:39:29;18.60;59.40
18085;DHT22;9169;44.492;11.372;2022-11-18T15:41:56;18.50;59.30
18085;DHT22;9169;44.492;11.372;2022-11-18T15:44:23;18.50;59.40
18085;DHT22;9169;44.492;11.372;2022-11-18T15:46:50;18.40;59.40
18085;DHT22;9169;44.492;11.372;2022-11-18T15:49:17;18.40;59.50
18085;DHT22;9169;44.492;11.372;2022-11-18T15:51:45;18.30;59.40
18085;DHT22;9169;44.492;11.372;2022-11-18T15:54:12;18.30;59.50
18085;DHT22;9169;44.492;11.372;2022-11-18T15:56:39;18.20;59.50